Ana Sayfa
METAR-TAF:

METAR-TAF

Havaalanları :

Sandpoint Airport (Dave Wall Field)

Sandpoint, Idaho, Amerika Birleşik Devletleri

Enlem: 48-17-58N, Boylam: 116-33-36W, yükseklik: 648 m

Güncel hava durumu gözlemi

Rapor saat 12:15 UTC de 10 dakika önce yapıldı.
Rüzgar kuzeydoğudan 4 kt
Sıcaklık 12°C
Nem 100%
Basınç 1015 hPa
Görüş mesafesi: 16.1 km
1000 ft yükseklikte parçalı bulutlu
2300 ft yükseklikte parçalı çok bulutlu
11000 ft yükseklikte parçalı çok bulutlu

METAR: KSZT 271215Z AUTO 04004KT 10SM SCT010 BKN023 BKN110 12/12 A2997 RMK AO2

Saat: 05:25 (12:25 UTC)


TAF: eksik

4.000'den fazla havaalanı için hava durumu gözlemleri ve tahminleri (METAR ve TAF raporları).

Kullanılabilir istasyonlar harita üzerinde sarı ve kırmızı noktalarla gösterilir.

İstasyonun adını görmek için fareyi noktanın üzerinde gezdirin.

Sonrasında hava gözlem ve tahminlerini görmek için tıklayın.

Haritayı değiştirmek için: yaklaştırmak için siyah artı işaretli yeşil düğmeye ve uzaklaştırmak için de eksi işaretli düğmeye hızla tıklayın; bitişik haritalar için yeşil okları kullanın.


METAR-TAF: